Time;durP1;ratioP1;P1;durP2;ratioP2;P2;SDS_P1;SDS_P2;PMS_P1;PMS_P2;Temp;Humidity;BMP_temperature;BMP_pressure;BME280_temperature;BME280_humidity;BME280_pressure;Samples;Min_cycle;Max_cycle;Signal;HPM_P1;HPM_P2
2022/09/04 00:00:09;;;;;;;3.05;2.20;;;;;;;;;;5007785;28;20116;-60
2022/09/04 00:03:00;;;;;;;3.90;2.20;;;;;;;;;;5003272;28;20057;-60
2022/09/04 00:05:50;;;;;;;5.03;2.15;;;;;;;;;;5012085;28;20107;-61
2022/09/04 00:08:17;;;;;;;4.95;1.88;;;;;;;;;;5003509;28;20048;-61
2022/09/04 00:10:57;;;;;;;3.95;1.85;;;;;;;;;;4995985;28;20054;-61
2022/09/04 00:13:32;;;;;;;2.88;1.90;;;;;;;;;;5003678;28;20070;-61
2022/09/04 00:16:08;;;;;;;2.53;1.73;;;;;;;;;;5000141;28;20065;-61
2022/09/04 00:19:03;;;;;;;3.30;1.60;;;;;;;;;;5005980;28;20061;-60
2022/09/04 00:21:38;;;;;;;4.65;1.60;;;;;;;;;;4997643;28;20041;-60
2022/09/04 00:24:14;;;;;;;2.50;1.40;;;;;;;;;;5003104;28;20137;-61
2022/09/04 00:26:55;;;;;;;1.70;1.40;;;;;;;;;;5009909;28;20034;-61
2022/09/04 00:29:43;;;;;;;1.65;1.55;;;;;;;;;;4996533;28;20042;-60
2022/09/04 00:32:30;;;;;;;2.33;1.42;;;;;;;;;;5001386;28;20178;-62
2022/09/04 00:35:13;;;;;;;3.72;1.70;;;;;;;;;;4986207;28;20045;-60
2022/09/04 00:37:55;;;;;;;1.50;1.30;;;;;;;;;;5004564;28;20129;-60
2022/09/04 00:41:00;;;;;;;3.08;1.67;;;;;;;;;;4996352;28;20614;-60
2022/09/04 00:43:26;;;;;;;1.80;1.13;;;;;;;;;;5007191;28;20053;-60
2022/09/04 00:46:32;;;;;;;2.22;1.50;;;;;;;;;;5006330;28;20411;-60
2022/09/04 00:49:30;;;;;;;1.40;1.30;;;;;;;;;;5001780;28;20038;-62
2022/09/04 00:52:11;;;;;;;1.40;1.30;;;;;;;;;;4983330;28;20054;-65
2022/09/04 00:54:49;;;;;;;1.40;1.30;;;;;;;;;;5000997;28;20595;-61
2022/09/04 00:57:47;;;;;;;3.03;1.60;;;;;;;;;;5003677;28;20096;-60
2022/09/04 01:00:19;;;;;;;1.88;1.35;;;;;;;;;;5002686;28;20446;-64
2022/09/04 01:03:06;;;;;;;2.75;1.55;;;;;;;;;;5004477;28;20022;-61
2022/09/04 01:06:13;;;;;;;1.67;1.50;;;;;;;;;;4996875;28;20120;-60
2022/09/04 01:09:09;;;;;;;2.67;1.42;;;;;;;;;;4999638;28;20058;-62
2022/09/04 01:12:10;;;;;;;1.40;1.30;;;;;;;;;;4997801;28;20399;-61
2022/09/04 01:15:02;;;;;;;2.20;1.52;;;;;;;;;;4955810;28;20046;-62
2022/09/04 01:17:37;;;;;;;2.03;1.10;;;;;;;;;;5003647;28;20038;-60
2022/09/04 01:20:30;;;;;;;1.73;1.50;;;;;;;;;;5002539;28;20466;-60
2022/09/04 01:23:22;;;;;;;2.80;1.63;;;;;;;;;;5006450;28;20046;-60
2022/09/04 01:26:04;;;;;;;3.15;1.60;;;;;;;;;;5006688;28;20048;-61
2022/09/04 01:28:45;;;;;;;1.77;1.30;;;;;;;;;;5005109;28;20038;-60
2022/09/04 01:31:35;;;;;;;2.40;1.30;;;;;;;;;;4997236;28;20396;-61
2022/09/04 01:34:31;;;;;;;1.58;1.30;;;;;;;;;;5009290;28;20408;-60
2022/09/04 01:37:15;;;;;;;1.30;1.20;;;;;;;;;;5002254;28;20049;-61
2022/09/04 01:39:45;;;;;;;1.48;1.38;;;;;;;;;;5000875;28;20049;-60
2022/09/04 01:42:27;;;;;;;1.95;1.40;;;;;;;;;;5003281;28;20396;-60
2022/09/04 01:44:53;;;;;;;2.33;1.60;;;;;;;;;;5003126;28;20034;-60
2022/09/04 01:47:37;;;;;;;2.03;1.67;;;;;;;;;;4999146;28;20435;-60
2022/09/04 01:50:12;;;;;;;1.42;1.30;;;;;;;;;;4994390;28;20149;-60
2022/09/04 01:53:01;;;;;;;2.40;1.50;;;;;;;;;;5003700;28;20435;-60
2022/09/04 01:55:43;;;;;;;2.40;1.60;;;;;;;;;;5005101;28;20045;-60
2022/09/04 01:58:21;;;;;;;1.67;1.55;;;;;;;;;;4998118;28;20066;-61
2022/09/04 02:00:58;;;;;;;1.70;1.60;;;;;;;;;;4989715;28;20049;-62
2022/09/04 02:03:38;;;;;;;3.33;1.60;;;;;;;;;;5005215;28;20538;-61
2022/09/04 02:06:21;;;;;;;2.78;1.70;;;;;;;;;;5002579;28;20405;-62
2022/09/04 02:09:44;;;;;;;2.75;1.80;;;;;;;;;;5000665;28;20147;-61
2022/09/04 02:12:49;;;;;;;1.60;1.50;;;;;;;;;;4961382;28;20038;-62
2022/09/04 02:15:48;;;;;;;4.47;1.65;;;;;;;;;;4966363;28;20201;-61
2022/09/04 02:18:34;;;;;;;2.58;1.67;;;;;;;;;;4998842;28;20017;-62
2022/09/04 02:21:55;;;;;;;1.73;1.63;;;;;;;;;;5004822;28;20029;-62
2022/09/04 02:24:36;;;;;;;2.45;1.52;;;;;;;;;;4993182;28;20050;-62
2022/09/04 02:27:31;;;;;;;1.90;1.70;;;;;;;;;;5006848;28;20034;-60
2022/09/04 02:30:10;;;;;;;2.22;1.45;;;;;;;;;;4969311;28;20051;-62
2022/09/04 02:32:58;;;;;;;2.42;1.65;;;;;;;;;;5002422;28;20050;-62
2022/09/04 02:35:39;;;;;;;2.58;1.80;;;;;;;;;;5006501;28;20045;-62
2022/09/04 02:38:26;;;;;;;2.10;1.90;;;;;;;;;;5001629;28;20042;-62
2022/09/04 02:41:06;;;;;;;2.47;1.90;;;;;;;;;;5002719;28;20033;-62
2022/09/04 02:43:40;;;;;;;2.05;1.90;;;;;;;;;;5006836;28;20038;-59
2022/09/04 02:46:33;;;;;;;3.42;1.95;;;;;;;;;;5005717;28;20046;-59
2022/09/04 02:49:12;;;;;;;1.98;1.80;;;;;;;;;;4997108;28;22081;-60
2022/09/04 02:52:14;;;;;;;3.47;1.95;;;;;;;;;;5001812;28;20045;-62
2022/09/04 02:55:02;;;;;;;3.47;1.92;;;;;;;;;;5002166;28;20108;-61
2022/09/04 02:58:00;;;;;;;2.17;1.98;;;;;;;;;;5005052;28;20050;-61
2022/09/04 03:01:04;;;;;;;2.10;1.90;;;;;;;;;;4996692;28;20034;-61
2022/09/04 03:03:42;;;;;;;1.73;1.63;;;;;;;;;;5002090;28;20081;-60
2022/09/04 03:06:12;;;;;;;2.40;1.83;;;;;;;;;;4982224;28;20092;-63
2022/09/04 03:08:53;;;;;;;3.00;2.17;;;;;;;;;;5000839;28;20035;-62
2022/09/04 03:11:29;;;;;;;3.03;2.00;;;;;;;;;;4997498;28;20099;-60
2022/09/04 03:14:05;;;;;;;2.33;1.90;;;;;;;;;;5001731;28;20046;-59
2022/09/04 03:17:05;;;;;;;5.15;2.10;;;;;;;;;;5001353;28;20073;-62
2022/09/04 03:19:54;;;;;;;5.10;2.67;;;;;;;;;;4999952;28;20493;-62
2022/09/04 03:22:30;;;;;;;3.08;2.13;;;;;;;;;;5004720;28;20041;-62
2022/09/04 03:25:02;;;;;;;2.40;2.20;;;;;;;;;;5000323;28;20056;-60
2022/09/04 03:27:32;;;;;;;4.05;2.63;;;;;;;;;;5000994;28;20133;-60
2022/09/04 03:30:13;;;;;;;7.30;2.97;;;;;;;;;;5002870;28;20558;-60
2022/09/04 03:33:04;;;;;;;6.10;2.83;;;;;;;;;;4994951;28;20558;-60
2022/09/04 03:35:52;;;;;;;5.05;2.75;;;;;;;;;;4995867;28;20034;-60
2022/09/04 03:38:36;;;;;;;7.20;3.40;;;;;;;;;;5006844;28;20056;-60
2022/09/04 03:41:17;;;;;;;4.80;3.38;;;;;;;;;;4997810;28;20487;-60
2022/09/04 03:44:00;;;;;;;4.13;3.20;;;;;;;;;;5001966;28;20127;-60
2022/09/04 03:46:33;;;;;;;8.05;3.50;;;;;;;;;;5000807;28;20511;-60
2022/09/04 03:49:05;;;;;;;9.57;3.22;;;;;;;;;;5008513;28;20506;-60
2022/09/04 03:51:35;;;;;;;5.27;2.77;;;;;;;;;;5002699;28;20786;-60
2022/09/04 03:54:27;;;;;;;4.70;2.72;;;;;;;;;;5013136;28;20036;-60
2022/09/04 03:56:52;;;;;;;6.15;3.60;;;;;;;;;;5003910;28;20105;-60
2022/09/04 03:59:36;;;;;;;6.82;3.35;;;;;;;;;;5006948;28;20042;-60
2022/09/04 04:02:15;;;;;;;7.85;3.72;;;;;;;;;;5015494;28;20046;-61
2022/09/04 04:05:00;;;;;;;7.20;3.95;;;;;;;;;;5005424;28;20125;-61
2022/09/04 04:08:16;;;;;;;9.40;4.35;;;;;;;;;;5001738;28;20042;-60
2022/09/04 04:11:15;;;;;;;9.10;4.75;;;;;;;;;;4974196;28;20054;-60
2022/09/04 04:14:23;;;;;;;13.35;5.22;;;;;;;;;;5008063;28;20051;-61
2022/09/04 04:16:54;;;;;;;11.57;5.50;;;;;;;;;;5002405;28;20951;-60
2022/09/04 04:19:19;;;;;;;11.35;5.63;;;;;;;;;;5003492;28;20383;-60
2022/09/04 04:22:22;;;;;;;14.23;5.90;;;;;;;;;;5003990;28;20049;-59
2022/09/04 04:24:56;;;;;;;17.55;6.13;;;;;;;;;;4982770;28;20046;-59
2022/09/04 04:27:55;;;;;;;16.63;6.55;;;;;;;;;;5007020;28;20108;-61
2022/09/04 04:30:21;;;;;;;16.00;6.90;;;;;;;;;;5003884;28;20540;-61
2022/09/04 04:33:04;;;;;;;19.38;6.53;;;;;;;;;;5002115;28;20048;-61
2022/09/04 04:35:55;;;;;;;15.68;6.55;;;;;;;;;;4995419;28;20408;-61
2022/09/04 04:38:23;;;;;;;21.55;7.90;;;;;;;;;;5002299;28;20645;-61
2022/09/04 04:41:20;;;;;;;16.00;6.78;;;;;;;;;;4998915;28;20038;-62
2022/09/04 04:44:07;;;;;;;14.60;6.18;;;;;;;;;;5001712;28;20065;-61
2022/09/04 04:47:02;;;;;;;15.32;7.13;;;;;;;;;;4998855;28;20038;-61
2022/09/04 04:49:55;;;;;;;10.60;4.97;;;;;;;;;;5005594;28;20042;-62
2022/09/04 04:52:51;;;;;;;7.55;4.35;;;;;;;;;;4996277;28;20042;-61
2022/09/04 04:55:48;;;;;;;9.02;4.50;;;;;;;;;;5002520;28;20139;-62
2022/09/04 04:58:26;;;;;;;8.75;4.38;;;;;;;;;;4996394;28;20038;-61
2022/09/04 05:01:05;;;;;;;9.48;4.65;;;;;;;;;;4993778;28;20045;-62
2022/09/04 05:03:52;;;;;;;11.10;4.45;;;;;;;;;;4995102;28;20503;-61
2022/09/04 05:06:27;;;;;;;12.25;5.22;;;;;;;;;;4992621;28;20415;-60
2022/09/04 05:08:55;;;;;;;8.63;5.20;;;;;;;;;;4993918;28;20037;-59
2022/09/04 05:11:32;;;;;;;10.02;4.72;;;;;;;;;;4993214;28;20086;-60
2022/09/04 05:14:26;;;;;;;10.50;5.22;;;;;;;;;;4995999;28;20046;-60
2022/09/04 05:17:13;;;;;;;10.65;5.00;;;;;;;;;;4993314;28;20091;-60
2022/09/04 05:19:48;;;;;;;10.80;5.25;;;;;;;;;;5006536;28;20408;-60
2022/09/04 05:22:32;;;;;;;9.95;5.28;;;;;;;;;;5003053;28;20060;-61
2022/09/04 05:25:15;;;;;;;13.40;5.90;;;;;;;;;;5004882;28;20042;-60
2022/09/04 05:28:01;;;;;;;9.53;5.17;;;;;;;;;;5005580;28;20396;-60
2022/09/04 05:30:45;;;;;;;14.90;5.53;;;;;;;;;;5003683;28;20053;-60
2022/09/04 05:33:33;;;;;;;15.10;6.28;;;;;;;;;;5002219;28;20332;-60
2022/09/04 05:36:28;;;;;;;14.52;6.28;;;;;;;;;;4999665;28;20446;-60
2022/09/04 05:39:17;;;;;;;13.95;6.40;;;;;;;;;;4999297;28;20049;-59
2022/09/04 05:42:01;;;;;;;14.40;6.28;;;;;;;;;;4999280;28;20050;-60
2022/09/04 05:44:51;;;;;;;14.63;6.10;;;;;;;;;;5004203;28;20115;-60
2022/09/04 05:47:25;;;;;;;18.08;6.10;;;;;;;;;;5003738;28;20105;-60
2022/09/04 05:50:12;;;;;;;14.02;6.25;;;;;;;;;;5003135;28;20045;-60
2022/09/04 05:52:46;;;;;;;13.23;6.32;;;;;;;;;;4998350;28;20092;-61
2022/09/04 05:55:30;;;;;;;12.35;6.20;;;;;;;;;;5006598;28;20514;-62
2022/09/04 05:58:27;;;;;;;12.85;6.63;;;;;;;;;;5007530;28;20038;-59
2022/09/04 06:01:22;;;;;;;16.00;6.50;;;;;;;;;;5002806;28;20380;-60
2022/09/04 06:03:56;;;;;;;15.93;6.93;;;;;;;;;;4998586;28;20084;-60
2022/09/04 06:06:55;;;;;;;16.95;6.30;;;;;;;;;;5002783;28;20033;-71
2022/09/04 06:09:43;;;;;;;18.55;7.00;;;;;;;;;;4999316;28;20168;-71
2022/09/04 06:12:33;;;;;;;15.32;6.57;;;;;;;;;;5004156;28;20117;-69
2022/09/04 06:15:14;;;;;;;10.65;6.47;;;;;;;;;;5005023;28;20037;-70
2022/09/04 06:18:17;;;;;;;14.90;6.88;;;;;;;;;;5002670;28;20447;-70
2022/09/04 06:20:52;;;;;;;16.48;7.10;;;;;;;;;;5006240;28;20046;-70
2022/09/04 06:23:46;;;;;;;14.57;6.75;;;;;;;;;;5007629;28;20042;-72
2022/09/04 06:26:43;;;;;;;19.77;7.50;;;;;;;;;;5000757;28;20425;-70
2022/09/04 06:29:27;;;;;;;12.45;6.63;;;;;;;;;;5005590;28;20050;-72
2022/09/04 06:32:05;;;;;;;15.45;6.43;;;;;;;;;;5002205;28;20077;-71
2022/09/04 06:34:39;;;;;;;11.80;6.45;;;;;;;;;;5000247;28;20080;-71
2022/09/04 06:37:25;;;;;;;12.25;6.53;;;;;;;;;;4999371;28;20648;-70
2022/09/04 06:40:19;;;;;;;11.43;6.47;;;;;;;;;;5002410;28;20046;-73
2022/09/04 06:43:06;;;;;;;11.73;6.55;;;;;;;;;;5005436;28;20046;-72
2022/09/04 06:45:43;;;;;;;10.15;5.35;;;;;;;;;;5001265;28;20049;-73
2022/09/04 06:48:22;;;;;;;10.27;5.53;;;;;;;;;;5000831;28;20026;-73
2022/09/04 06:51:20;;;;;;;11.35;5.63;;;;;;;;;;5006060;28;20536;-72
2022/09/04 06:54:10;;;;;;;8.88;5.15;;;;;;;;;;5006646;28;20062;-72
2022/09/04 06:56:54;;;;;;;10.85;5.28;;;;;;;;;;5003456;28;20122;-73
2022/09/04 06:59:40;;;;;;;14.10;6.18;;;;;;;;;;5005700;28;20050;-73
2022/09/04 07:02:33;;;;;;;10.10;5.55;;;;;;;;;;5005523;28;20050;-72
2022/09/04 07:05:26;;;;;;;9.40;5.00;;;;;;;;;;5001839;28;20054;-72
2022/09/04 07:08:21;;;;;;;10.27;5.32;;;;;;;;;;5002409;28;20050;-72
2022/09/04 07:10:57;;;;;;;8.18;5.50;;;;;;;;;;5001561;28;20125;-72
2022/09/04 07:13:41;;;;;;;8.48;5.95;;;;;;;;;;4999634;28;20051;-72
2022/09/04 07:16:24;;;;;;;8.25;5.68;;;;;;;;;;4999844;28;20061;-72
2022/09/04 07:18:56;;;;;;;9.98;5.80;;;;;;;;;;5003916;28;20046;-71
2022/09/04 07:21:34;;;;;;;9.00;6.20;;;;;;;;;;5000163;28;20076;-72
2022/09/04 07:24:05;;;;;;;8.20;5.78;;;;;;;;;;5002299;28;20071;-72
2022/09/04 07:26:41;;;;;;;8.82;5.65;;;;;;;;;;5004977;28;20069;-71
2022/09/04 07:29:41;;;;;;;9.18;5.95;;;;;;;;;;5010807;28;20038;-71
2022/09/04 07:32:15;;;;;;;7.30;5.18;;;;;;;;;;5008042;28;20037;-72
2022/09/04 07:34:55;;;;;;;10.95;5.10;;;;;;;;;;5003816;28;20069;-73
2022/09/04 07:38:02;;;;;;;6.28;5.15;;;;;;;;;;5008804;28;20552;-73
2022/09/04 07:40:52;;;;;;;9.15;5.53;;;;;;;;;;4983080;28;20209;-72
2022/09/04 07:43:38;;;;;;;7.88;5.97;;;;;;;;;;5004811;28;20498;-72
2022/09/04 07:46:11;;;;;;;7.38;5.28;;;;;;;;;;5005652;28;20131;-73
2022/09/04 07:48:52;;;;;;;6.57;5.13;;;;;;;;;;5004718;28;20041;-72
2022/09/04 07:51:35;;;;;;;8.05;5.18;;;;;;;;;;5004115;28;20053;-73
2022/09/04 07:54:17;;;;;;;7.53;5.07;;;;;;;;;;5004714;28;20030;-72
2022/09/04 07:57:12;;;;;;;8.40;5.18;;;;;;;;;;5002954;28;20391;-71
2022/09/04 07:59:47;;;;;;;7.97;5.43;;;;;;;;;;5005899;28;20046;-73
2022/09/04 08:02:49;;;;;;;8.88;5.35;;;;;;;;;;5004770;28;20046;-72
2022/09/04 08:05:32;;;;;;;6.20;4.63;;;;;;;;;;4995468;28;20093;-72
2022/09/04 08:08:22;;;;;;;8.25;6.13;;;;;;;;;;4994568;28;20400;-72
2022/09/04 08:10:58;;;;;;;12.40;7.07;;;;;;;;;;4998643;28;20050;-72
2022/09/04 08:13:59;;;;;;;8.02;5.45;;;;;;;;;;4999746;28;20061;-73
2022/09/04 08:16:24;;;;;;;8.35;5.03;;;;;;;;;;5012079;28;20080;-72
2022/09/04 08:19:18;;;;;;;6.95;5.13;;;;;;;;;;5002030;28;20144;-74
2022/09/04 08:21:46;;;;;;;5.85;4.32;;;;;;;;;;4999976;28;20050;-74
2022/09/04 08:24:31;;;;;;;7.32;5.10;;;;;;;;;;4998855;28;20533;-73
2022/09/04 08:27:32;;;;;;;9.07;5.68;;;;;;;;;;4999471;28;20034;-72
2022/09/04 08:30:05;;;;;;;14.57;6.72;;;;;;;;;;4982065;28;20042;-71
2022/09/04 08:32:49;;;;;;;;;;;;;;;;;;5000973;28;20057;-73
2022/09/04 08:35:31;;;;;;;11.30;6.97;;;;;;;;;;4999848;28;20342;-72
2022/09/04 08:38:25;;;;;;;9.73;7.00;;;;;;;;;;5000493;28;20042;-73
2022/09/04 08:41:09;;;;;;;8.20;6.22;;;;;;;;;;4994886;28;20057;-73
2022/09/04 08:43:38;;;;;;;6.15;4.97;;;;;;;;;;4996262;28;20038;-73
2022/09/04 08:46:47;;;;;;;8.60;6.00;;;;;;;;;;5006016;28;20065;-72
2022/09/04 08:49:25;;;;;;;11.25;7.45;;;;;;;;;;5003240;28;20046;-67
2022/09/04 08:51:55;;;;;;;7.75;6.57;;;;;;;;;;5001658;28;20053;-67
2022/09/04 08:54:56;;;;;;;7.07;5.05;;;;;;;;;;5001677;28;20762;-67
2022/09/04 08:57:30;;;;;;;6.45;5.43;;;;;;;;;;5009932;28;20447;-68
2022/09/04 09:00:04;;;;;;;6.45;5.20;;;;;;;;;;5006085;28;20048;-68
2022/09/04 09:02:44;;;;;;;6.72;5.57;;;;;;;;;;4999977;28;20111;-69
2022/09/04 09:05:16;;;;;;;6.40;5.50;;;;;;;;;;5001273;28;20050;-67
2022/09/04 09:08:02;;;;;;;8.40;5.55;;;;;;;;;;5002516;28;20415;-68
2022/09/04 09:11:16;;;;;;;8.05;5.38;;;;;;;;;;5000499;28;20046;-68
2022/09/04 09:13:56;;;;;;;;;;;;;;;;;;4999534;28;20046;-68
2022/09/04 09:16:41;;;;;;;8.02;5.82;;;;;;;;;;5001863;28;19917;-68
2022/09/04 09:19:32;;;;;;;7.10;5.07;;;;;;;;;;5006117;28;20038;-67
2022/09/04 09:22:46;;;;;;;7.07;4.93;;;;;;;;;;5002272;28;20061;-69
2022/09/04 09:25:19;;;;;;;5.90;5.28;;;;;;;;;;5002893;28;20124;-68
2022/09/04 09:28:15;;;;;;;8.77;5.75;;;;;;;;;;5009649;28;20053;-68
2022/09/04 09:30:53;;;;;;;9.02;6.03;;;;;;;;;;5000688;28;20193;-67
2022/09/04 09:33:22;;;;;;;5.82;4.85;;;;;;;;;;5001003;28;20054;-67
2022/09/04 09:36:06;;;;;;;7.07;4.88;;;;;;;;;;5004465;28;20054;-68
2022/09/04 09:38:53;;;;;;;6.25;4.43;;;;;;;;;;5007625;28;20183;-67
2022/09/04 09:41:19;;;;;;;6.50;4.68;;;;;;;;;;5001500;28;20069;-67
2022/09/04 09:43:50;;;;;;;6.45;4.50;;;;;;;;;;5008726;28;21344;-68
2022/09/04 09:46:44;;;;;;;4.88;3.92;;;;;;;;;;5006706;28;20060;-66
2022/09/04 09:49:18;;;;;;;5.38;4.32;;;;;;;;;;5001287;28;20049;-69
2022/09/04 09:52:04;;;;;;;5.72;4.60;;;;;;;;;;5002498;28;20053;-69
2022/09/04 09:54:54;;;;;;;6.00;4.75;;;;;;;;;;5004943;28;20034;-67
2022/09/04 09:57:23;;;;;;;6.32;4.82;;;;;;;;;;5006889;28;20129;-70
2022/09/04 10:00:21;;;;;;;5.07;3.65;;;;;;;;;;5003639;28;20025;-69
2022/09/04 10:03:40;;;;;;;3.70;3.25;;;;;;;;;;5003379;28;20153;-69
2022/09/04 10:06:27;;;;;;;3.80;3.45;;;;;;;;;;4981603;28;20050;-70
2022/09/04 10:09:30;;;;;;;4.30;3.47;;;;;;;;;;5002701;28;20026;-73
2022/09/04 10:12:30;;;;;;;3.60;3.30;;;;;;;;;;5006166;28;20049;-69
2022/09/04 10:15:15;;;;;;;5.63;3.30;;;;;;;;;;4994209;28;20072;-69
2022/09/04 10:18:23;;;;;;;3.55;3.25;;;;;;;;;;5003980;28;20061;-69
2022/09/04 10:21:09;;;;;;;3.38;2.90;;;;;;;;;;5012260;28;20630;-70
2022/09/04 10:24:04;;;;;;;5.18;3.80;;;;;;;;;;5008620;28;20069;-70
2022/09/04 10:26:59;;;;;;;3.97;3.30;;;;;;;;;;5008323;28;20092;-71
2022/09/04 10:29:46;;;;;;;4.28;2.97;;;;;;;;;;5005544;28;20049;-70
2022/09/04 10:32:31;;;;;;;4.07;2.75;;;;;;;;;;5001082;28;20232;-70
2022/09/04 10:35:24;;;;;;;2.80;2.47;;;;;;;;;;5003759;28;20077;-68
2022/09/04 10:38:11;;;;;;;5.13;3.30;;;;;;;;;;5007081;28;20044;-69
2022/09/04 10:40:58;;;;;;;5.78;3.20;;;;;;;;;;5001112;28;20042;-70
2022/09/04 10:43:37;;;;;;;3.38;2.90;;;;;;;;;;4998056;28;20042;-70
2022/09/04 10:46:10;;;;;;;4.32;2.80;;;;;;;;;;5007967;28;20439;-69
2022/09/04 10:48:41;;;;;;;6.72;3.25;;;;;;;;;;5004645;28;20614;-69
2022/09/04 10:51:32;;;;;;;4.10;2.60;;;;;;;;;;5006944;28;20087;-69
2022/09/04 10:54:22;;;;;;;3.70;3.30;;;;;;;;;;5002868;28;20502;-68
2022/09/04 10:56:57;;;;;;;4.13;3.20;;;;;;;;;;4999774;28;20042;-71
2022/09/04 10:59:31;;;;;;;3.10;2.78;;;;;;;;;;5005321;28;20034;-71
2022/09/04 11:02:10;;;;;;;4.55;3.38;;;;;;;;;;5008748;28;20053;-68
2022/09/04 11:05:11;;;;;;;3.72;3.25;;;;;;;;;;5005488;28;20444;-68
2022/09/04 11:07:42;;;;;;;3.75;3.13;;;;;;;;;;5006311;28;20246;-69
2022/09/04 11:10:45;;;;;;;4.45;3.15;;;;;;;;;;5008902;28;20433;-69
2022/09/04 11:13:48;;;;;;;3.30;3.00;;;;;;;;;;5004063;28;20645;-70
2022/09/04 11:16:22;;;;;;;5.13;3.28;;;;;;;;;;5012908;28;20049;-70
2022/09/04 11:18:48;;;;;;;4.63;3.03;;;;;;;;;;5009830;28;20558;-69
2022/09/04 11:21:41;;;;;;;3.72;3.25;;;;;;;;;;5006559;28;20234;-70
2022/09/04 11:24:36;;;;;;;4.20;2.75;;;;;;;;;;5010075;28;20118;-69
2022/09/04 11:27:25;;;;;;;4.20;2.60;;;;;;;;;;5008562;28;20046;-69
2022/09/04 11:30:22;;;;;;;3.80;2.65;;;;;;;;;;5003795;28;20080;-69
2022/09/04 11:33:03;;;;;;;3.90;3.20;;;;;;;;;;4989023;28;20061;-70
2022/09/04 11:35:53;;;;;;;4.10;3.50;;;;;;;;;;5008597;28;20053;-60
2022/09/04 11:38:42;;;;;;;5.13;3.70;;;;;;;;;;5008204;28;20128;-60
2022/09/04 11:41:29;;;;;;;5.18;4.03;;;;;;;;;;4997742;28;20073;-60
2022/09/04 11:44:06;;;;;;;4.25;3.85;;;;;;;;;;4999017;28;20067;-60
2022/09/04 11:46:34;;;;;;;4.97;3.20;;;;;;;;;;4998970;28;20440;-59
2022/09/04 11:49:19;;;;;;;6.05;3.45;;;;;;;;;;5004765;28;20047;-62
2022/09/04 11:52:03;;;;;;;5.10;3.92;;;;;;;;;;5006096;28;20084;-61
2022/09/04 11:54:37;;;;;;;5.75;4.00;;;;;;;;;;5008804;28;20037;-62
2022/09/04 11:57:30;;;;;;;7.43;4.22;;;;;;;;;;5013023;28;20037;-59
2022/09/04 12:00:06;;;;;;;3.88;3.33;;;;;;;;;;5006916;28;20037;-60
2022/09/04 12:02:44;;;;;;;5.22;4.50;;;;;;;;;;5007164;28;20038;-65
2022/09/04 12:05:38;;;;;;;4.72;3.55;;;;;;;;;;5005403;28;20113;-59
2022/09/04 12:08:42;;;;;;;6.85;4.22;;;;;;;;;;4996813;28;20232;-60
2022/09/04 12:11:45;;;;;;;3.92;3.30;;;;;;;;;;4995969;28;20061;-60
2022/09/04 12:14:23;;;;;;;4.00;3.58;;;;;;;;;;5003455;28;20057;-62
2022/09/04 12:17:14;;;;;;;4.43;3.17;;;;;;;;;;5000604;28;20061;-59
2022/09/04 12:19:45;;;;;;;4.63;3.30;;;;;;;;;;4998514;28;20049;-61
2022/09/04 12:22:54;;;;;;;3.33;3.03;;;;;;;;;;4997393;28;20053;-60
2022/09/04 12:25:51;;;;;;;5.50;3.53;;;;;;;;;;5010366;28;20046;-60
2022/09/04 12:28:51;;;;;;;3.97;2.58;;;;;;;;;;5014296;28;20048;-62
2022/09/04 12:31:28;;;;;;;3.25;2.67;;;;;;;;;;5000780;28;20408;-59
2022/09/04 12:34:18;;;;;;;4.32;2.92;;;;;;;;;;5015040;28;20030;-59
2022/09/04 12:37:12;;;;;;;3.15;2.47;;;;;;;;;;5009795;28;20034;-60
2022/09/04 12:40:05;;;;;;;3.47;2.20;;;;;;;;;;5005537;28;20042;-61
2022/09/04 12:42:46;;;;;;;2.85;2.40;;;;;;;;;;4994781;28;20038;-59
2022/09/04 12:45:24;;;;;;;2.50;2.20;;;;;;;;;;5005700;28;20046;-61
2022/09/04 12:48:09;;;;;;;2.75;2.55;;;;;;;;;;5009803;28;20070;-61
2022/09/04 12:50:44;;;;;;;2.42;2.20;;;;;;;;;;5001050;28;20129;-62
2022/09/04 12:53:42;;;;;;;2.13;1.90;;;;;;;;;;5015534;28;20046;-61
2022/09/04 12:56:18;;;;;;;2.60;1.88;;;;;;;;;;5007385;28;20391;-61
2022/09/04 12:59:06;;;;;;;2.33;1.70;;;;;;;;;;5004602;28;20091;-60
2022/09/04 13:01:42;;;;;;;1.98;1.70;;;;;;;;;;5011752;28;20048;-59
2022/09/04 13:04:31;;;;;;;2.55;2.05;;;;;;;;;;5009709;28;20045;-61
2022/09/04 13:07:34;;;;;;;1.95;1.75;;;;;;;;;;5013588;28;20096;-60
2022/09/04 13:10:31;;;;;;;2.58;1.73;;;;;;;;;;5015004;28;20088;-61
2022/09/04 13:13:23;;;;;;;2.10;1.50;;;;;;;;;;5004652;28;20356;-61
2022/09/04 13:16:16;;;;;;;1.63;1.52;;;;;;;;;;5010242;28;20037;-60
2022/09/04 13:19:07;;;;;;;4.18;1.60;;;;;;;;;;5006201;28;20092;-60
2022/09/04 13:21:48;;;;;;;1.45;1.35;;;;;;;;;;5011359;28;20065;-60
2022/09/04 13:24:42;;;;;;;2.45;1.73;;;;;;;;;;5013233;28;20030;-60
2022/09/04 13:27:25;;;;;;;3.40;1.67;;;;;;;;;;5007802;28;20061;-61
2022/09/04 13:30:00;;;;;;;2.72;1.70;;;;;;;;;;5007916;28;20034;-60
2022/09/04 13:32:59;;;;;;;2.85;1.77;;;;;;;;;;5014893;28;20045;-60
2022/09/04 13:35:41;;;;;;;2.28;1.30;;;;;;;;;;5008674;28;20041;-60
2022/09/04 13:38:24;;;;;;;3.97;1.42;;;;;;;;;;5017600;28;20119;-60
2022/09/04 13:40:52;;;;;;;;;;;;;;;;;;5000669;28;20052;-60
2022/09/04 13:43:46;;;;;;;1.60;1.48;;;;;;;;;;5012271;28;19917;-59
2022/09/04 13:46:28;;;;;;;1.45;1.35;;;;;;;;;;4991703;28;20064;-60
2022/09/04 13:49:01;;;;;;;1.50;1.30;;;;;;;;;;5010936;28;20095;-62
2022/09/04 13:51:31;;;;;;;1.50;1.30;;;;;;;;;;5013292;28;20046;-61
2022/09/04 13:54:20;;;;;;;1.50;1.40;;;;;;;;;;5007689;28;20046;-60
2022/09/04 13:56:56;;;;;;;5.50;1.50;;;;;;;;;;5013085;28;20042;-61
2022/09/04 13:59:23;;;;;;;1.20;1.10;;;;;;;;;;5007285;28;20095;-60
2022/09/04 14:01:53;;;;;;;1.30;1.20;;;;;;;;;;5011357;28;20057;-60
2022/09/04 14:04:33;;;;;;;1.75;1.27;;;;;;;;;;5013568;28;20483;-60
2022/09/04 14:07:05;;;;;;;1.52;1.30;;;;;;;;;;5012035;28;20056;-60
2022/09/04 14:09:36;;;;;;;2.55;1.40;;;;;;;;;;5005521;28;20034;-60
2022/09/04 14:12:37;;;;;;;2.30;1.20;;;;;;;;;;5002437;28;20128;-60
2022/09/04 14:15:30;;;;;;;1.27;1.17;;;;;;;;;;4982558;28;20487;-61
2022/09/04 14:18:15;;;;;;;1.30;1.20;;;;;;;;;;5009798;28;20054;-60
2022/09/04 14:21:00;;;;;;;4.53;1.40;;;;;;;;;;5004338;28;20061;-60
2022/09/04 14:23:44;;;;;;;4.82;1.60;;;;;;;;;;5012451;28;20050;-61
2022/09/04 14:26:44;;;;;;;1.13;1.05;;;;;;;;;;5007967;28;20131;-61
2022/09/04 14:29:14;;;;;;;1.13;1.05;;;;;;;;;;5008375;28;20373;-59
2022/09/04 14:31:51;;;;;;;1.25;1.15;;;;;;;;;;5011083;28;20445;-59
2022/09/04 14:34:35;;;;;;;3.47;1.40;;;;;;;;;;5014494;28;21678;-59
2022/09/04 14:37:09;;;;;;;3.63;1.40;;;;;;;;;;5002531;28;20082;-60
2022/09/04 14:39:51;;;;;;;1.80;1.30;;;;;;;;;;5009493;28;20057;-60
2022/09/04 14:42:40;;;;;;;1.17;1.10;;;;;;;;;;5006931;28;20036;-60
2022/09/04 14:45:12;;;;;;;1.33;1.23;;;;;;;;;;4996829;28;20033;-59
2022/09/04 14:47:53;;;;;;;1.45;1.27;;;;;;;;;;4997185;28;20106;-60
2022/09/04 14:50:22;;;;;;;1.40;1.20;;;;;;;;;;5005063;28;20472;-67
2022/09/04 14:52:52;;;;;;;2.42;1.30;;;;;;;;;;5003515;28;20128;-67
2022/09/04 14:55:25;;;;;;;3.47;1.20;;;;;;;;;;4999409;28;20045;-62
2022/09/04 14:57:58;;;;;;;4.75;1.35;;;;;;;;;;5004503;28;20049;-65
2022/09/04 15:00:23;;;;;;;2.80;1.20;;;;;;;;;;4995896;28;20042;-63
2022/09/04 15:03:15;;;;;;;1.90;1.20;;;;;;;;;;5001522;28;20037;-66
2022/09/04 15:06:07;;;;;;;2.13;1.17;;;;;;;;;;5002770;28;20042;-65
2022/09/04 15:08:34;;;;;;;1.13;1.05;;;;;;;;;;4989685;28;20105;-68
2022/09/04 15:11:07;;;;;;;2.05;1.40;;;;;;;;;;4996671;28;20058;-67
2022/09/04 15:13:52;;;;;;;2.42;1.20;;;;;;;;;;5001998;28;20491;-68
2022/09/04 15:16:36;;;;;;;2.03;1.15;;;;;;;;;;4996461;28;20048;-66
2022/09/04 15:19:20;;;;;;;2.95;1.25;;;;;;;;;;4998659;28;20130;-67
2022/09/04 15:21:53;;;;;;;3.03;1.75;;;;;;;;;;5003420;28;20500;-68
2022/09/04 15:24:36;;;;;;;1.30;1.20;;;;;;;;;;5001498;28;20517;-67
2022/09/04 15:27:39;;;;;;;1.00;1.00;;;;;;;;;;4999736;28;20037;-67
2022/09/04 15:30:06;;;;;;;;;;;;;;;;;;5000934;28;20049;-65
2022/09/04 15:32:38;;;;;;;1.65;0.95;;;;;;;;;;5001602;28;20374;-67
2022/09/04 15:35:14;;;;;;;1.42;0.68;;;;;;;;;;5003836;28;20041;-69
2022/09/04 15:37:45;;;;;;;1.77;0.80;;;;;;;;;;5001326;28;20042;-68
2022/09/04 15:40:35;;;;;;;1.80;0.82;;;;;;;;;;5007766;28;20518;-67
2022/09/04 15:43:16;;;;;;;1.50;1.00;;;;;;;;;;4992373;28;20407;-68
2022/09/04 15:45:46;;;;;;;1.08;0.88;;;;;;;;;;4993187;28;21269;-65
2022/09/04 15:48:39;;;;;;;1.17;0.90;;;;;;;;;;5000131;28;20068;-66
2022/09/04 15:51:19;;;;;;;1.77;1.60;;;;;;;;;;5002574;28;20380;-65
2022/09/04 15:53:52;;;;;;;2.00;1.10;;;;;;;;;;4994127;28;20365;-68
2022/09/04 15:56:17;;;;;;;1.30;1.20;;;;;;;;;;4993322;28;20130;-68
2022/09/04 15:58:54;;;;;;;3.50;1.20;;;;;;;;;;4994913;28;20530;-69
2022/09/04 16:01:27;;;;;;;1.00;0.95;;;;;;;;;;4988812;28;20872;-69
2022/09/04 16:04:06;;;;;;;0.80;0.77;;;;;;;;;;4994895;28;20095;-69
2022/09/04 16:07:06;;;;;;;1.45;1.10;;;;;;;;;;5001036;28;20049;-69
2022/09/04 16:09:42;;;;;;;0.73;0.73;;;;;;;;;;4982710;28;20087;-69
2022/09/04 16:12:14;;;;;;;2.35;1.00;;;;;;;;;;5000901;28;20030;-70
2022/09/04 16:14:58;;;;;;;2.17;0.90;;;;;;;;;;5004540;28;20473;-68
2022/09/04 16:17:31;;;;;;;1.42;0.88;;;;;;;;;;5003759;28;20051;-68
2022/09/04 16:20:12;;;;;;;2.95;1.10;;;;;;;;;;5001237;28;20038;-68
2022/09/04 16:22:51;;;;;;;1.23;0.80;;;;;;;;;;5004438;28;20053;-68
2022/09/04 16:25:37;;;;;;;1.92;0.90;;;;;;;;;;5002870;28;20156;-67